TimeCEST,TemperatureF,Dew PointF,Humidity,Sea Level PressureIn,VisibilityMPH,Wind Direction,Wind SpeedMPH,Gust SpeedMPH,PrecipitationIn,Events,Conditions,WindDirDegrees,DateUTC
12:00 AM,73.4,60.8,65,30.04,6.2,Calm,Calm,-,N/A,,Partly Cloudy,0,2013-07-09 22:00:00
12:30 AM,73.4,59.0,61,30.04,6.2,West,2.3,-,N/A,,Partly Cloudy,260,2013-07-09 22:30:00
1:00 AM,71.6,59.0,64,30.04,6.2,WNW,1.2,-,N/A,,Partly Cloudy,300,2013-07-09 23:00:00
1:30 AM,71.6,57.2,60,30.04,6.2,Calm,Calm,-,N/A,,Partly Cloudy,0,2013-07-09 23:30:00
2:00 AM,73,63,64,30.06,16,SE,3.5,,,,Scattered Clouds,140,2013-07-10 00:00:00
2:00 AM,71.6,62.6,73,30.04,6.2,SSE,3.5,-,N/A,,Partly Cloudy,150,2013-07-10 00:00:00
2:30 AM,71.6,64.4,78,30.04,6.2,Variable,1.2,-,N/A,,Partly Cloudy,0,2013-07-10 00:30:00
3:00 AM,71.6,62.6,73,30.04,6.2,Calm,Calm,-,N/A,,Partly Cloudy,0,2013-07-10 01:00:00
3:30 AM,71.6,62.6,73,30.04,6.2,Calm,Calm,-,N/A,,Partly Cloudy,0,2013-07-10 01:30:00
4:00 AM,71.6,60.8,69,30.04,6.2,West,5.8,-,N/A,,Partly Cloudy,270,2013-07-10 02:00:00
4:30 AM,69.8,60.8,73,30.01,6.2,WNW,5.8,-,N/A,,Partly Cloudy,300,2013-07-10 02:30:00
5:00 AM,68.0,59.0,73,30.01,6.2,NW,3.5,-,N/A,,Partly Cloudy,310,2013-07-10 03:00:00
5:30 AM,68.0,57.2,68,30.01,6.2,WNW,3.5,-,N/A,,Partly Cloudy,290,2013-07-10 03:30:00
6:00 AM,68.0,55.4,64,30.01,6.2,WNW,5.8,-,N/A,,Partly Cloudy,290,2013-07-10 04:00:00
6:30 AM,68.0,55.4,64,30.01,6.2,WNW,8.1,-,N/A,,Partly Cloudy,300,2013-07-10 04:30:00
7:00 AM,68.0,55.4,64,29.98,6.2,West,8.1,-,N/A,,Partly Cloudy,280,2013-07-10 05:00:00
7:30 AM,69.8,57.2,64,29.98,-9999.0,WNW,6.9,-,N/A,,Clear,290,2013-07-10 05:30:00
8:00 AM,72,57,49,29.99,19,West,9.2,,,,,280,2013-07-10 06:00:00
8:00 AM,69.8,57.2,64,29.98,-9999.0,WNW,9.2,-,N/A,,Clear,290,2013-07-10 06:00:00
8:30 AM,73.4,57.2,57,29.98,-9999.0,West,6.9,-,N/A,,Clear,280,2013-07-10 06:30:00
9:00 AM,73.4,55.4,53,29.98,-9999.0,WNW,6.9,-,N/A,,Clear,290,2013-07-10 07:00:00
9:30 AM,75.2,55.4,50,29.98,-9999.0,WNW,6.9,-,N/A,,Clear,290,2013-07-10 07:30:00
10:00 AM,78.8,57.2,47,29.98,-9999.0,NW,3.5,-,N/A,,Clear,310,2013-07-10 08:00:00
10:30 AM,80.6,57.2,45,29.98,-9999.0,WNW,3.5,-,N/A,,Clear,300,2013-07-10 08:30:00
11:00 AM,84.2,53.6,35,29.95,-9999.0,WNW,3.5,-,N/A,,Clear,300,2013-07-10 09:00:00
11:30 AM,87.8,51.8,29,29.95,-9999.0,Calm,Calm,-,N/A,,Clear,0,2013-07-10 09:30:00
12:00 PM,86.0,51.8,31,29.95,-9999.0,SE,4.6,-,N/A,,Clear,130,2013-07-10 10:00:00
12:30 PM,87.8,48.2,25,29.95,-9999.0,SE,4.6,-,N/A,,Clear,130,2013-07-10 10:30:00
1:00 PM,89.6,44.6,21,29.95,-9999.0,SE,4.6,-,N/A,,Clear,130,2013-07-10 11:00:00
1:30 PM,89.6,48.2,24,29.92,-9999.0,ESE,5.8,-,N/A,,Clear,120,2013-07-10 11:30:00
2:00 PM,94,50,14,29.93,19,ESE,8.1,,,,,120,2013-07-10 12:00:00
2:00 PM,89.6,48.2,24,29.92,-9999.0,SE,8.1,-,N/A,,Clear,130,2013-07-10 12:00:00
2:30 PM,89.6,44.6,21,29.92,-9999.0,SE,10.4,-,N/A,,Clear,140,2013-07-10 12:30:00
3:00 PM,91.4,44.6,20,29.92,-9999.0,SSE,10.4,-,N/A,,Clear,150,2013-07-10 13:00:00
3:30 PM,91.4,46.4,21,29.89,-9999.0,SE,9.2,-,N/A,,Clear,130,2013-07-10 13:30:00
4:00 PM,89.6,44.6,21,29.89,-9999.0,SE,10.4,-,N/A,,Clear,130,2013-07-10 14:00:00
4:30 PM,89.6,48.2,24,29.89,-9999.0,SE,11.5,-,N/A,,Clear,130,2013-07-10 14:30:00
5:00 PM,82,55,30,29.85,,SE,8.1,,,,,140,2013-07-10 15:00:00
5:00 PM,87.8,48.2,25,29.89,-9999.0,SE,12.7,-,N/A,,Clear,140,2013-07-10 15:00:00
5:30 PM,87.8,51.8,29,29.86,-9999.0,SSE,11.5,-,N/A,,Clear,150,2013-07-10 15:30:00
6:00 PM,89,58,25,29.87,,SE,11.5,,,,,140,2013-07-10 16:00:00
6:00 PM,86.0,51.8,31,29.86,-9999.0,SE,11.5,-,N/A,,Clear,140,2013-07-10 16:00:00
6:30 PM,86.0,55.4,35,29.86,-9999.0,SE,10.4,-,N/A,,Clear,130,2013-07-10 16:30:00
7:00 PM,87,60,30,29.86,,SE,10.4,,,,,130,2013-07-10 17:00:00
7:00 PM,84.2,57.2,40,29.86,-9999.0,SE,10.4,-,N/A,,Clear,130,2013-07-10 17:00:00
7:30 PM,82.4,59.0,45,29.86,-9999.0,SE,9.2,-,N/A,,Clear,130,2013-07-10 17:30:00
8:00 PM,83,57,31,29.85,19,SE,9.2,,,,,140,2013-07-10 18:00:00
8:00 PM,80.6,57.2,45,29.86,-9999.0,SE,9.2,-,N/A,,Clear,140,2013-07-10 18:00:00
8:30 PM,78.8,51.8,39,29.83,-9999.0,SE,9.2,-,N/A,,Clear,140,2013-07-10 18:30:00
9:00 PM,78,57,38,29.87,,ESE,6.9,,,,,120,2013-07-10 19:00:00
9:00 PM,78.8,53.6,42,29.86,-9999.0,SE,8.1,-,N/A,,Clear,140,2013-07-10 19:00:00
9:30 PM,77.0,55.4,47,29.86,-9999.0,SE,5.8,-,N/A,,Clear,140,2013-07-10 19:30:00
10:00 PM,78,57,38,29.87,,ESE,6.9,,,,,120,2013-07-10 20:00:00
10:00 PM,77.0,57.2,50,29.86,-9999.0,ESE,5.8,-,N/A,,Clear,120,2013-07-10 20:00:00
10:30 PM,77.0,57.2,50,29.86,-9999.0,SE,6.9,-,N/A,,Clear,130,2013-07-10 20:30:00
11:00 PM,76,60,48,29.89,19,SE,5.8,,,,Clear,140,2013-07-10 21:00:00
11:00 PM,75.2,57.2,53,29.89,-9999.0,SE,5.8,-,N/A,,Clear,140,2013-07-10 21:00:00
11:30 PM,73.4,64.4,73,29.89,-9999.0,East,8.1,-,N/A,,Clear,100,2013-07-10 21:30:00